Time;durP1;ratioP1;P1;durP2;ratioP2;P2;SDS_P1;SDS_P2;PMS_P1;PMS_P2;Temp;Humidity;BMP_temperature;BMP_pressure;BME280_temperature;BME280_humidity;BME280_pressure;Samples;Min_cycle;Max_cycle;Signal;HPM_P1;HPM_P2
2022/07/05 05:34:07;;;;;;;;;2.00;2.00;;;;;21.74;49.71;102014.00;5048993;27;45952;-74
2022/07/05 05:36:33;;;;;;;;;2.00;2.00;;;;;21.88;50.51;102016.41;5047517;27;45491;-74
2022/07/05 05:38:58;;;;;;;;;2.00;2.00;;;;;22.11;50.28;102019.03;5048045;28;45511;-74
2022/07/05 05:41:23;;;;;;;;;3.00;3.00;;;;;22.37;50.66;102013.28;5050022;28;45298;-75
2022/07/05 05:43:48;;;;;;;;;2.00;2.00;;;;;22.64;50.64;102020.94;5042743;28;49337;-79
2022/07/05 05:46:14;;;;;;;;;4.33;3.67;;;;;22.94;50.11;102028.38;5046742;28;45450;-76
2022/07/05 05:48:39;;;;;;;;;3.67;2.00;;;;;23.25;49.31;102031.09;5047983;28;45409;-76
2022/07/05 05:51:05;;;;;;;;;4.00;2.33;;;;;23.55;49.38;102038.38;5042051;28;45576;-76
2022/07/05 05:53:30;;;;;;;;;3.33;3.33;;;;;23.81;48.42;102040.59;5049731;28;46929;-74
2022/07/05 05:55:56;;;;;;;;;2.67;2.67;;;;;24.06;48.32;102038.38;5047808;28;46176;-76
2022/07/05 05:58:23;;;;;;;;;3.00;2.67;;;;;24.32;47.79;102040.53;5047031;28;45693;-78
2022/07/05 06:00:51;;;;;;;;;4.00;4.00;;;;;24.52;47.21;102040.53;5050257;28;45850;-77
2022/07/05 06:03:19;;;;;;;;;3.33;3.33;;;;;24.76;46.99;102047.38;5047607;28;46184;-80
2022/07/05 06:05:45;;;;;;;;;6.33;3.00;;;;;24.96;46.18;102044.63;5048420;28;45511;-77
2022/07/05 06:08:11;;;;;;;;;3.33;3.33;;;;;25.16;45.84;102045.44;5047371;28;45545;-79
2022/07/05 06:10:37;;;;;;;;;2.67;2.67;;;;;25.31;45.30;102044.97;5046709;28;45522;-76
2022/07/05 06:13:05;;;;;;;;;3.00;3.00;;;;;25.47;45.26;102047.06;5047346;28;46265;-81
2022/07/05 06:15:31;;;;;;;;;3.00;1.67;;;;;25.60;44.84;102047.59;5048183;28;45467;-75
2022/07/05 06:17:57;;;;;;;;;3.00;3.00;;;;;25.72;44.85;102041.94;5045568;28;45387;-78
2022/07/05 06:20:35;;;;;;;;;3.33;3.33;;;;;25.75;44.07;102036.22;5042323;28;45544;-79
2022/07/05 06:23:02;;;;;;;;;4.00;2.33;;;;;25.93;44.21;102052.53;5047668;28;46143;-76
2022/07/05 06:25:28;;;;;;;;;3.00;3.00;;;;;26.01;43.82;102054.50;5045430;28;45298;-77
2022/07/05 06:27:59;;;;;;;;;3.00;3.00;;;;;26.13;43.75;102047.84;5047392;28;45320;-76
2022/07/05 06:30:27;;;;;;;;;4.00;4.00;;;;;26.23;43.69;102047.75;5047859;28;45313;-77
2022/07/05 06:32:54;;;;;;;;;2.33;2.33;;;;;26.34;43.32;102046.69;5045182;28;45559;-75
2022/07/05 06:35:20;;;;;;;;;5.67;4.33;;;;;26.45;43.15;102051.03;5048934;28;45642;-75
2022/07/05 06:37:46;;;;;;;;;2.00;2.00;;;;;26.55;43.43;102053.66;5044346;28;45645;-75
2022/07/05 06:40:17;;;;;;;;;2.33;2.33;;;;;26.64;43.24;102062.78;5042572;28;45459;-75
2022/07/05 06:42:42;;;;;;;;;4.00;2.00;;;;;26.67;43.32;102052.41;5045442;28;45334;-75
2022/07/05 06:45:08;;;;;;;;;4.00;2.33;;;;;26.80;42.92;102056.56;5031445;28;45454;-76
2022/07/05 06:47:34;;;;;;;;;3.67;3.67;;;;;26.88;42.23;102064.81;5029971;28;45756;-76
2022/07/05 06:50:02;;;;;;;;;1.67;1.67;;;;;26.93;42.70;102059.78;5032447;28;45467;-76
2022/07/05 06:52:28;;;;;;;;;2.00;2.00;;;;;27.01;42.27;102058.97;5033329;28;46258;-75
2022/07/05 06:54:53;;;;;;;;;6.00;5.00;;;;;27.04;42.77;102055.94;5033878;28;45337;-76
2022/07/05 06:57:22;;;;;;;;;3.00;3.00;;;;;27.13;42.50;102064.16;5032999;28;45869;-75
2022/07/05 06:59:48;;;;;;;;;3.00;3.00;;;;;27.17;41.81;102055.50;5034887;28;45410;-76
2022/07/05 07:02:14;;;;;;;;;3.33;3.33;;;;;27.25;41.72;102059.28;5036224;28;45389;-75
2022/07/05 07:04:39;;;;;;;;;3.00;3.00;;;;;27.30;41.67;102060.50;5034944;28;45678;-75
2022/07/05 07:09:17;;;;;;;;;3.00;3.00;;;;;27.32;42.20;102054.88;5033334;28;45495;-75
2022/07/05 07:09:50;;;;;;;;;2.33;2.33;;;;;27.42;41.49;102073.84;5032264;28;45697;-76
2022/07/05 07:12:15;;;;;;;;;3.00;3.00;;;;;27.46;42.01;102069.78;5032157;28;54048;-75
2022/07/05 07:14:41;;;;;;;;;3.67;3.67;;;;;27.48;41.83;102065.00;5031918;28;52145;-75
2022/07/05 07:17:06;;;;;;;;;2.00;2.00;;;;;27.48;41.98;102063.16;5034708;28;47001;-75
2022/07/05 07:19:31;;;;;;;;;2.00;2.00;;;;;27.54;41.70;102075.25;5029820;28;45475;-75
2022/07/05 07:21:57;;;;;;;;;3.00;3.00;;;;;27.57;41.44;102065.91;5030434;28;64201;-78
2022/07/05 07:24:22;;;;;;;;;2.00;2.00;;;;;27.58;41.12;102075.78;5028353;28;56198;-76
2022/07/05 07:27:03;;;;;;;;;2.00;2.00;;;;;27.62;41.48;102069.00;5032086;28;45752;-77
2022/07/05 07:29:29;;;;;;;;;2.67;2.67;;;;;27.67;41.62;102076.72;5031263;28;45781;-75
2022/07/05 07:31:55;;;;;;;;;1.67;1.67;;;;;27.69;41.11;102078.25;5011714;28;47443;-76
2022/07/05 07:34:21;;;;;;;;;3.00;2.00;;;;;27.70;41.50;102079.97;5030068;28;45591;-74
2022/07/05 07:36:47;;;;;;;;;4.67;3.00;;;;;27.72;41.12;102077.91;5030126;28;45566;-74
2022/07/05 07:39:12;;;;;;;;;5.00;4.00;;;;;27.70;41.52;102076.38;5029856;28;45516;-75
2022/07/05 07:41:38;;;;;;;;;3.00;3.00;;;;;27.75;40.86;102077.59;5032923;28;45411;-75
2022/07/05 07:44:03;;;;;;;;;4.00;4.00;;;;;27.75;39.75;102074.88;5029975;28;45529;-74
2022/07/05 07:46:28;;;;;;;;;2.33;2.00;;;;;27.75;39.55;102084.94;5028959;28;45500;-75
2022/07/05 07:48:54;;;;;;;;;3.33;3.33;;;;;27.73;40.26;102082.38;5024911;28;45404;-72
2022/07/05 07:51:21;;;;;;;;;4.33;3.00;;;;;27.74;39.94;102084.06;5028085;28;46345;-72
2022/07/05 07:53:47;;;;;;;;;2.33;2.33;;;;;27.76;40.48;102083.91;5029833;28;45404;-73
2022/07/05 07:56:12;;;;;;;;;2.67;2.67;;;;;27.78;40.50;102081.03;5030284;28;45435;-73
2022/07/05 07:58:37;;;;;;;;;3.00;3.00;;;;;27.80;40.71;102085.28;5030681;28;45575;-73
2022/07/05 08:01:03;;;;;;;;;4.00;4.00;;;;;27.83;40.76;102081.38;5032145;28;45480;-73
2022/07/05 08:03:28;;;;;;;;;4.00;4.00;;;;;27.85;40.01;102080.19;5032242;28;45411;-73
2022/07/05 08:05:54;;;;;;;;;2.33;2.33;;;;;27.89;40.60;102086.16;5030024;28;46083;-73
2022/07/05 08:08:19;;;;;;;;;2.67;2.67;;;;;27.92;40.43;102085.84;5035078;28;45737;-73
2022/07/05 08:10:45;;;;;;;;;3.00;3.00;;;;;27.92;40.24;102080.38;5028941;28;58803;-74
2022/07/05 08:13:10;;;;;;;;;3.00;3.00;;;;;27.99;40.19;102086.00;5029959;28;45455;-72
2022/07/05 08:15:35;;;;;;;;;2.33;2.33;;;;;28.01;40.35;102078.53;5028748;28;45500;-72
2022/07/05 08:23:28;;;;;;;;;4.33;3.33;;;;;28.02;40.10;102064.72;5033120;28;45523;-75
2022/07/05 08:25:53;;;;;;;;;3.00;3.00;;;;;28.06;40.29;102078.00;5029183;28;45400;-76
2022/07/05 08:28:19;;;;;;;;;2.33;2.33;;;;;28.07;39.73;102069.66;5031631;28;45655;-75
2022/07/05 08:30:44;;;;;;;;;4.00;3.00;;;;;28.07;39.55;102069.66;5025970;28;45388;-77
2022/07/05 08:33:09;;;;;;;;;3.00;3.00;;;;;28.08;39.54;102071.34;5027325;28;49644;-76
2022/07/05 08:35:35;;;;;;;;;3.33;3.33;;;;;28.11;39.51;102076.50;5029764;28;52730;-76
2022/07/05 08:38:00;;;;;;;;;4.33;4.00;;;;;28.11;40.13;102075.63;5031336;28;45365;-77
2022/07/05 08:40:29;;;;;;;;;3.00;3.00;;;;;28.14;40.06;102084.34;5029697;28;54915;-77
2022/07/05 08:42:58;;;;;;;;;4.00;2.33;;;;;28.15;39.64;102072.41;5030969;28;45511;-76
2022/07/05 08:45:26;;;;;;;;;5.00;3.33;;;;;28.16;39.97;102073.28;5027629;28;45547;-77
2022/07/05 08:47:53;;;;;;;;;5.33;2.00;;;;;28.20;39.58;102073.78;5029367;28;45521;-79
2022/07/05 08:50:21;;;;;;;;;4.00;2.33;;;;;28.19;39.29;102072.09;5031751;28;46335;-79
2022/07/05 08:52:47;;;;;;;;;7.00;5.00;;;;;28.15;39.23;102064.22;5028494;28;45630;-79
2022/07/05 08:55:13;;;;;;;;;4.00;4.00;;;;;28.13;39.24;102068.16;5031360;28;45502;-79
2022/07/05 08:57:39;;;;;;;;;5.33;4.67;;;;;28.11;39.14;102065.56;5028685;28;45463;-82
2022/07/05 09:00:04;;;;;;;;;3.67;3.67;;;;;28.11;39.07;102059.25;5028029;28;51645;-78
2022/07/05 09:02:30;;;;;;;;;3.00;3.00;;;;;28.12;39.65;102059.09;5033115;28;45642;-78
2022/07/05 09:04:57;;;;;;;;;3.00;3.00;;;;;28.16;39.58;102059.63;5027109;28;45542;-78
2022/07/05 09:07:27;;;;;;;;;3.33;3.33;;;;;28.17;39.58;102055.00;5029185;28;45490;-78
2022/07/05 09:09:55;;;;;;;;;3.00;3.00;;;;;28.14;38.39;102058.94;5027591;28;46200;-78
2022/07/05 09:12:20;;;;;;;;;4.33;3.00;;;;;28.10;38.71;102052.97;5031506;28;45594;-80
2022/07/05 09:14:46;;;;;;;;;3.67;3.67;;;;;28.07;38.16;102056.00;5032033;28;49879;-82
2022/07/05 09:17:11;;;;;;;;;4.00;4.00;;;;;28.04;38.29;102055.50;5032336;28;45792;-79
2022/07/05 09:19:37;;;;;;;;;6.67;4.00;;;;;28.04;38.97;102058.22;5031149;28;52398;-75
2022/07/05 09:22:04;;;;;;;;;6.00;3.33;;;;;28.04;38.35;102061.81;5031309;28;45542;-75
2022/07/05 09:24:31;;;;;;;;;4.67;4.67;;;;;28.06;39.01;102058.91;5030568;28;46032;-76
2022/07/05 09:27:03;;;;;;;;;4.33;4.33;;;;;28.08;39.06;102056.88;5030086;28;45551;-75
2022/07/05 09:29:29;;;;;;;;;2.00;2.00;;;;;28.11;38.78;102057.38;5031580;28;47169;-78
2022/07/05 09:31:54;;;;;;;;;3.00;3.00;;;;;28.15;38.63;102056.03;5029869;28;45743;-77
2022/07/05 09:34:21;;;;;;;;;2.67;2.67;;;;;28.19;39.16;102062.00;5026275;28;45492;-75
2022/07/05 09:36:55;;;;;;;;;4.00;4.00;;;;;28.21;39.09;102051.78;5028666;28;45587;-80
2022/07/05 09:39:41;;;;;;;;;3.00;3.00;;;;;28.22;39.05;102048.03;5043578;28;46613;-77
2022/07/05 09:42:20;;;;;;;;;2.67;2.67;;;;;28.20;38.69;102046.50;5026921;28;45731;-77
2022/07/05 09:44:50;;;;;;;;;4.67;2.00;;;;;28.20;39.23;102058.25;5029267;28;45498;-78
2022/07/05 09:47:17;;;;;;;;;3.00;3.00;;;;;28.20;39.43;102065.59;5030542;28;45692;-77
2022/07/05 09:49:46;;;;;;;;;2.33;2.33;;;;;28.17;39.01;102052.28;5029370;28;46372;-80
2022/07/05 09:52:29;;;;;;;;;3.33;3.33;;;;;28.21;39.47;102053.66;5030337;28;45450;-79
2022/07/05 09:55:19;;;;;;;;;5.00;4.67;;;;;28.24;38.98;102056.91;5027381;28;45635;-78
2022/07/05 09:57:46;;;;;;;;;4.00;4.00;;;;;28.26;39.61;102056.75;5028877;28;45456;-80
2022/07/05 10:00:20;;;;;;;;;3.33;3.33;;;;;28.26;38.90;102062.22;5028462;28;46097;-76
2022/07/05 10:02:48;;;;;;;;;3.00;3.00;;;;;28.31;39.75;102051.63;5029755;28;45842;-76
2022/07/05 10:05:18;;;;;;;;;2.33;2.33;;;;;28.33;39.70;102049.63;5031202;28;45444;-78
2022/07/05 10:07:47;;;;;;;;;3.67;3.33;;;;;28.33;39.06;102054.19;5028789;28;45541;-76
2022/07/05 10:10:14;;;;;;;;;2.33;2.33;;;;;28.31;39.44;102051.63;5024985;28;46295;-75
2022/07/05 10:12:42;;;;;;;;;2.33;2.33;;;;;28.34;39.02;102040.38;5027425;28;45862;-76
2022/07/05 10:15:09;;;;;;;;;4.00;4.00;;;;;28.35;39.52;102041.22;5014319;28;45617;-79
2022/07/05 10:17:46;;;;;;;;;4.33;4.33;;;;;28.41;39.70;102056.94;5026043;28;45391;-78
2022/07/05 10:20:40;;;;;;;;;4.00;4.00;;;;;28.43;39.02;102048.56;5041571;28;46316;-80
2022/07/05 10:23:14;;;;;;;;;3.67;3.67;;;;;28.48;39.39;102052.50;5030289;28;45567;-77
2022/07/05 10:25:41;;;;;;;;;3.00;3.00;;;;;28.50;39.76;102055.94;5029636;28;45331;-75
2022/07/05 10:28:07;;;;;;;;;4.00;3.00;;;;;28.52;39.20;102051.13;5031288;28;45978;-75
2022/07/05 10:30:34;;;;;;;;;3.00;3.00;;;;;28.52;39.32;102045.66;5027415;28;45487;-79
2022/07/05 10:33:04;;;;;;;;;4.00;3.33;;;;;28.57;39.77;102057.97;5030316;28;45460;-78
2022/07/05 10:35:30;;;;;;;;;3.00;2.67;;;;;28.57;39.32;102049.78;5033324;28;45545;-80
2022/07/05 10:38:01;;;;;;;;;3.00;2.67;;;;;28.57;38.57;102047.03;5016514;28;45462;-80
2022/07/05 10:40:28;;;;;;;;;4.00;4.00;;;;;28.51;38.64;102052.16;5028113;28;45451;-77
2022/07/05 10:42:59;;;;;;;;;4.00;4.00;;;;;28.47;38.39;102045.34;5031084;28;45427;-78
2022/07/05 10:45:26;;;;;;;;;4.00;4.00;;;;;28.43;38.41;102043.09;5031480;28;45884;-78
2022/07/05 10:48:09;;;;;;;;;5.00;5.00;;;;;28.40;37.79;102047.03;5033252;28;45573;-78
2022/07/05 10:51:06;;;;;;;;;2.33;2.33;;;;;28.35;38.03;102046.69;5033629;28;46234;-79
2022/07/05 10:53:37;;;;;;;;;5.00;3.33;;;;;28.30;37.79;102041.75;5031427;28;45563;-80
2022/07/05 10:56:02;;;;;;;;;4.33;4.00;;;;;28.26;37.26;102038.50;5021033;28;46186;-80
2022/07/05 10:58:38;;;;;;;;;4.33;3.67;;;;;28.24;37.20;102039.69;5030836;28;45514;-80
2022/07/05 11:01:19;;;;;;;;;4.67;4.67;;;;;28.22;37.47;102034.38;5023733;28;46165;-80
2022/07/05 11:03:49;;;;;;;;;4.67;4.67;;;;;28.20;37.62;102027.38;5032433;28;45734;-78
2022/07/05 11:06:52;;;;;;;;;3.67;3.67;;;;;28.17;37.40;102033.16;5032913;28;45485;-79
2022/07/05 11:09:19;;;;;;;;;3.67;3.67;;;;;28.16;37.90;102029.59;5026075;28;45456;-80
2022/07/05 11:12:05;;;;;;;;;7.00;5.33;;;;;28.14;36.84;102034.38;5032499;28;46510;-81
2022/07/05 11:14:32;;;;;;;;;4.67;4.67;;;;;28.10;37.35;102028.41;5031143;28;45421;-80
2022/07/05 11:17:27;;;;;;;;;5.00;5.00;;;;;28.06;36.82;102029.75;5029660;28;45483;-81
2022/07/05 11:20:05;;;;;;;;;3.00;3.00;;;;;28.04;36.91;102028.22;5026949;28;45922;-80
2022/07/05 11:22:31;;;;;;;;;4.00;3.67;;;;;28.00;37.64;102025.81;5031824;28;46286;-82
2022/07/05 11:24:58;;;;;;;;;4.00;4.00;;;;;28.02;37.92;102025.66;5031277;28;47272;-78
2022/07/05 11:27:23;;;;;;;;;5.33;4.33;;;;;27.99;37.74;102032.28;5030657;28;45512;-78
2022/07/05 11:29:53;;;;;;;;;4.00;4.00;;;;;27.98;37.41;102022.41;5029126;28;45399;-78
2022/07/05 11:32:28;;;;;;;;;5.00;3.33;;;;;27.97;37.55;102037.09;5033572;28;46377;-78
2022/07/05 11:34:55;;;;;;;;;5.00;5.00;;;;;27.96;37.91;102023.59;5031158;28;45387;-76
2022/07/05 11:37:32;;;;;;;;;4.67;4.00;;;;;27.95;37.10;102022.72;5029404;28;45472;-76
2022/07/05 11:40:09;;;;;;;;;3.67;3.67;;;;;27.95;37.48;102024.63;5031127;28;45479;-77
2022/07/05 11:42:37;;;;;;;;;3.67;3.67;;;;;27.90;37.72;102022.38;5030932;28;46127;-77
2022/07/05 11:45:05;;;;;;;;;5.67;5.67;;;;;27.92;37.70;102028.53;5030812;28;45529;-78
2022/07/05 11:47:30;;;;;;;;;5.33;5.33;;;;;27.92;37.10;102024.97;5034283;28;45507;-78
2022/07/05 11:49:57;;;;;;;;;4.33;4.33;;;;;27.91;37.85;102017.78;5027784;28;45541;-77
2022/07/05 11:52:33;;;;;;;;;5.00;4.67;;;;;27.91;37.66;102013.19;5028216;28;45398;-77
2022/07/05 11:55:04;;;;;;;;;4.00;4.00;;;;;27.91;37.29;102025.97;5029626;28;46218;-78
2022/07/05 11:57:29;;;;;;;;;5.00;5.00;;;;;27.88;37.39;102014.38;5029004;28;45596;-78
2022/07/05 11:59:55;;;;;;;;;6.67;5.67;;;;;27.90;37.70;102010.63;5028225;28;45430;-78
2022/07/05 12:02:20;;;;;;;;;3.33;3.33;;;;;27.91;37.47;102006.88;5035047;28;46670;-78
2022/07/05 12:04:56;;;;;;;;;4.00;4.00;;;;;27.90;37.54;102003.28;5026957;28;45538;-78
2022/07/05 12:07:24;;;;;;;;;5.67;4.33;;;;;27.90;37.31;102003.28;5031589;28;45348;-78
2022/07/05 12:12:44;;;;;;;;;6.33;6.00;;;;;27.87;36.80;102007.22;5030310;28;45432;-79
2022/07/05 12:15:12;;;;;;;;;4.67;4.00;;;;;27.90;37.49;101999.72;5028214;28;49673;-75
2022/07/05 12:17:39;;;;;;;;;4.00;4.00;;;;;27.90;37.02;101992.38;5030803;28;45404;-75
2022/07/05 12:20:06;;;;;;;;;4.00;4.00;;;;;27.95;36.73;101992.72;5031339;28;45455;-75
2022/07/05 12:22:36;;;;;;;;;4.00;4.00;;;;;28.01;36.91;102008.44;5031244;28;48226;-75
2022/07/05 12:25:04;;;;;;;;;4.67;4.67;;;;;28.05;37.69;102003.50;5018163;28;46067;-74
2022/07/05 12:27:31;;;;;;;;;5.00;5.00;;;;;28.11;37.60;102001.94;5028199;28;45663;-75
2022/07/05 12:29:57;;;;;;;;;5.00;5.00;;;;;28.12;37.13;101993.59;5029906;28;45458;-77
2022/07/05 12:32:23;;;;;;;;;5.00;5.00;;;;;28.20;37.10;102000.09;5025516;28;45398;-78
2022/07/05 12:34:48;;;;;;;;;5.00;5.00;;;;;28.14;37.10;101996.16;5028715;28;45489;-77
2022/07/05 12:37:24;;;;;;;;;4.67;4.00;;;;;28.29;37.01;101996.38;5026780;28;45322;-78
2022/07/05 12:40:01;;;;;;;;;5.00;5.00;;;;;28.34;37.23;101985.78;5022188;28;45776;-77
2022/07/05 12:42:36;;;;;;;;;7.33;5.33;;;;;28.35;37.07;101989.34;5027807;28;45810;-77
2022/07/05 12:45:13;;;;;;;;;4.00;4.00;;;;;28.41;37.15;101988.69;5016613;28;45438;-79
2022/07/05 12:47:53;;;;;;;;;4.67;4.67;;;;;28.47;37.69;101982.53;5027031;28;45423;-76
2022/07/05 12:50:19;;;;;;;;;5.00;5.00;;;;;28.51;37.63;101989.34;5031687;28;45381;-80
2022/07/05 12:58:52;;;;;;;;;5.00;5.00;;;;;28.53;36.21;101986.47;5027619;28;45470;-75
2022/07/05 13:01:23;;;;;;;;;5.33;5.33;;;;;28.56;36.32;101979.81;5028045;28;45436;-75
2022/07/05 13:03:59;;;;;;;;;4.00;4.00;;;;;28.56;36.60;101983.38;5018545;28;46221;-84
2022/07/05 13:06:46;;;;;;;;;4.33;4.33;;;;;28.58;36.19;101983.19;5029931;28;45844;-76
2022/07/05 13:09:13;;;;;;;;;5.00;5.00;;;;;28.59;36.77;101980.28;5021013;28;47110;-75
2022/07/05 13:11:39;;;;;;;;;5.00;5.00;;;;;28.57;36.42;101965.09;5027643;28;45759;-75
2022/07/05 13:14:05;;;;;;;;;4.00;4.00;;;;;28.61;36.70;101977.41;5026264;28;46296;-74
2022/07/05 13:16:31;;;;;;;;;5.67;5.67;;;;;28.61;36.38;101974.66;5028550;28;45504;-75
2022/07/05 13:19:07;;;;;;;;;5.67;5.33;;;;;28.61;35.80;101980.97;5028627;28;45469;-74
2022/07/05 13:21:32;;;;;;;;;6.00;4.33;;;;;28.61;35.31;101972.78;5026090;28;45495;-75
2022/07/05 13:23:57;;;;;;;;;5.33;5.33;;;;;28.59;35.38;101960.31;5021628;28;46190;-75
2022/07/05 13:26:23;;;;;;;;;3.00;3.00;;;;;28.57;35.53;101973.31;5031692;28;51248;-76
2022/07/05 13:28:48;;;;;;;;;6.33;5.67;;;;;28.52;36.42;101971.94;5032570;28;45452;-74
2022/07/05 13:31:14;;;;;;;;;6.00;6.00;;;;;28.54;35.92;101972.59;5024792;28;45495;-75
2022/07/05 13:33:39;;;;;;;;;5.00;5.00;;;;;28.58;36.21;101975.88;5027248;28;46384;-74
2022/07/05 13:36:04;;;;;;;;;5.00;5.00;;;;;28.59;36.62;101968.50;5030710;28;45619;-74
2022/07/05 13:38:30;;;;;;;;;4.33;4.33;;;;;28.64;36.15;101971.56;5031788;28;45957;-74
2022/07/05 13:40:55;;;;;;;;;6.00;6.00;;;;;28.66;36.09;101970.38;5030028;28;45434;-74
2022/07/05 13:43:20;;;;;;;;;5.00;5.00;;;;;28.68;36.83;101970.19;5031358;28;54194;-74
2022/07/05 13:45:46;;;;;;;;;4.33;4.33;;;;;28.73;36.06;101970.53;5028663;28;49793;-75
2022/07/05 13:48:11;;;;;;;;;4.67;4.67;;;;;28.75;36.18;101979.41;5024821;28;45484;-75
2022/07/05 13:50:37;;;;;;;;;9.67;7.00;;;;;28.77;35.80;101981.97;5032473;28;45409;-74
2022/07/05 13:53:03;;;;;;;;;5.33;5.33;;;;;28.79;36.50;101988.09;5031338;28;46394;-74
2022/07/05 13:55:28;;;;;;;;;5.00;4.67;;;;;28.79;36.10;101985.38;5029254;28;59357;-73
2022/07/05 13:57:55;;;;;;;;;4.67;4.67;;;;;28.80;36.13;101987.94;5032395;28;45345;-74
2022/07/05 14:00:21;;;;;;;;;7.00;7.00;;;;;28.82;36.46;101982.31;5032711;28;45336;-74
2022/07/05 14:02:46;;;;;;;;;6.00;6.00;;;;;28.84;37.13;101982.97;5034185;28;46115;-77
2022/07/05 14:05:12;;;;;;;;;4.00;4.00;;;;;28.84;36.79;101974.78;5032977;28;45775;-75
2022/07/05 14:07:37;;;;;;;;;4.00;4.00;;;;;28.89;36.78;101982.50;5033620;28;45440;-74
2022/07/05 14:10:04;;;;;;;;;4.67;4.67;;;;;28.91;36.64;101988.63;5029964;28;45465;-75
2022/07/05 14:12:29;;;;;;;;;5.67;5.67;;;;;28.92;36.58;101980.25;5033066;28;45475;-77
2022/07/05 14:14:54;;;;;;;;;5.00;4.00;;;;;28.95;37.36;101980.91;5033719;28;45620;-74
2022/07/05 14:17:20;;;;;;;;;6.00;5.00;;;;;28.93;36.90;101979.22;5036875;28;46049;-74
2022/07/05 14:19:45;;;;;;;;;6.00;6.00;;;;;28.93;36.88;101981.94;5033106;28;45692;-74
2022/07/05 14:22:10;;;;;;;;;5.00;4.67;;;;;28.92;37.14;101977.53;5033665;28;45432;-74
2022/07/05 14:24:36;;;;;;;;;6.00;6.00;;;;;28.90;37.16;101970.53;5031843;28;45447;-75
2022/07/05 14:27:01;;;;;;;;;6.33;5.33;;;;;28.48;37.48;101970.56;5033870;28;45535;-76
2022/07/05 14:29:26;;;;;;;;;6.33;6.33;;;;;27.92;38.66;101971.25;5035643;28;45382;-75
2022/07/05 14:31:52;;;;;;;;;6.33;5.67;;;;;27.50;38.60;101978.44;5030258;28;54191;-77
2022/07/05 14:34:17;;;;;;;;;4.00;4.00;;;;;27.15;39.40;101974.91;5034439;28;52038;-76
2022/07/05 14:36:42;;;;;;;;;4.67;4.67;;;;;26.85;40.69;101972.50;5033840;28;45591;-76
2022/07/05 14:39:07;;;;;;;;;5.67;4.33;;;;;26.63;40.76;101966.59;5034816;28;45475;-73
2022/07/05 14:41:33;;;;;;;;;4.00;4.00;;;;;26.47;41.38;101966.47;5035513;28;48650;-73
2022/07/05 14:43:58;;;;;;;;;5.00;5.00;;;;;26.34;41.60;101967.75;5033298;28;45316;-73
2022/07/05 14:46:23;;;;;;;;;6.00;4.67;;;;;26.25;42.23;101961.41;5031520;28;46735;-74
2022/07/05 14:48:49;;;;;;;;;4.00;4.00;;;;;26.17;42.31;101966.75;5032603;28;45483;-73
2022/07/05 14:51:15;;;;;;;;;6.00;6.00;;;;;26.10;42.79;101961.06;5033463;28;45457;-76
2022/07/05 14:53:46;;;;;;;;;4.67;4.67;;;;;26.05;42.62;101957.97;5035885;28;45986;-77
2022/07/05 14:56:11;;;;;;;;;6.00;6.00;;;;;25.96;41.78;101962.50;5034401;28;45893;-76
2022/07/05 14:58:36;;;;;;;;;5.00;5.00;;;;;25.96;41.79;101967.94;5033014;28;46020;-77
2022/07/05 15:01:02;;;;;;;;;4.33;4.33;;;;;25.94;41.74;101961.78;5031411;28;63647;-78
2022/07/05 15:03:27;;;;;;;;;5.33;5.33;;;;;25.90;41.84;101958.50;5029442;28;45498;-72
2022/07/05 15:05:53;;;;;;;;;5.00;5.00;;;;;25.85;42.28;101947.25;5033898;28;45511;-73
2022/07/05 15:08:22;;;;;;;;;7.33;6.67;;;;;25.82;42.64;101958.44;5035011;28;45529;-74
2022/07/05 15:10:48;;;;;;;;;4.67;4.67;;;;;25.82;42.67;101954.88;5021110;28;46127;-75
2022/07/05 15:13:13;;;;;;;;;5.33;3.00;;;;;25.79;42.35;101946.00;5026712;28;45785;-76
2022/07/05 15:15:39;;;;;;;;;4.67;4.67;;;;;25.79;42.88;101947.88;5029529;28;45465;-75
2022/07/05 15:18:04;;;;;;;;;5.00;5.00;;;;;25.74;42.89;101951.06;5030880;28;46773;-77
2022/07/05 15:20:29;;;;;;;;;4.00;4.00;;;;;25.72;43.17;101944.91;5031604;28;45362;-75
2022/07/05 15:22:56;;;;;;;;;5.33;4.00;;;;;25.70;43.30;101937.94;5030619;28;45407;-77
2022/07/05 15:25:22;;;;;;;;;4.00;4.00;;;;;25.68;43.45;101934.50;5028554;28;45505;-74
2022/07/05 15:27:48;;;;;;;;;3.00;3.00;;;;;25.68;43.70;101934.50;5033078;28;46477;-75
2022/07/05 15:30:14;;;;;;;;;4.00;4.00;;;;;25.65;43.72;101935.66;5027073;28;46604;-76
2022/07/05 15:32:40;;;;;;;;;6.00;4.00;;;;;25.64;43.69;101932.09;5025330;28;45689;-77
2022/07/05 15:35:06;;;;;;;;;5.67;4.33;;;;;25.64;44.15;101928.53;5026860;28;45393;-74
2022/07/05 15:37:31;;;;;;;;;6.00;6.00;;;;;25.60;43.91;101917.09;5026570;28;45427;-76
2022/07/05 15:39:58;;;;;;;;;4.33;3.67;;;;;25.62;44.19;101933.22;5028894;28;45811;-75
2022/07/05 15:42:24;;;;;;;;;4.00;4.00;;;;;25.62;44.52;101933.22;5030686;28;45466;-75
2022/07/05 15:44:49;;;;;;;;;5.33;3.00;;;;;25.57;44.25;101922.84;5028048;28;45982;-75
2022/07/05 15:47:15;;;;;;;;;3.00;3.00;;;;;25.61;44.57;101920.66;5032775;28;45509;-75
2022/07/05 15:49:40;;;;;;;;;4.00;4.00;;;;;25.61;44.73;101935.13;5029179;28;45969;-75
2022/07/05 15:52:06;;;;;;;;;4.00;3.33;;;;;25.58;45.12;101921.00;5030004;28;45868;-75
2022/07/05 15:54:34;;;;;;;;;3.50;3.50;;;;;25.61;45.04;101931.53;5026741;28;45646;-75
2022/07/05 15:56:59;;;;;;;;;3.67;3.67;;;;;25.60;45.30;101927.97;5030837;28;47347;-76
2022/07/05 15:59:25;;;;;;;;;3.67;3.67;;;;;25.63;45.34;101926.81;5034079;28;45370;-78
2022/07/05 16:01:51;;;;;;;;;6.00;4.33;;;;;25.62;45.34;101934.09;5030300;28;45856;-75
2022/07/05 16:04:16;;;;;;;;;3.33;3.33;;;;;25.63;45.54;101926.81;5026235;28;45589;-75
2022/07/05 16:06:42;;;;;;;;;3.00;3.00;;;;;25.64;44.93;101923.94;5034204;28;45544;-77
2022/07/05 16:09:07;;;;;;;;;3.00;3.00;;;;;25.67;44.02;101924.63;5028896;28;46251;-78
2022/07/05 16:11:33;;;;;;;;;4.33;4.33;;;;;25.72;43.47;101925.03;5023441;28;45470;-77
2022/07/05 16:13:59;;;;;;;;;6.00;5.00;;;;;25.77;43.17;101917.25;5030675;28;45498;-77
2022/07/05 16:16:24;;;;;;;;;5.33;5.33;;;;;25.77;42.96;101922.69;5021635;28;45579;-77
2022/07/05 16:18:50;;;;;;;;;4.33;4.33;;;;;25.82;42.81;101919.53;5026449;28;45929;-76
2022/07/05 16:21:17;;;;;;;;;5.00;5.00;;;;;25.90;42.25;101927.72;5028294;28;47136;-75
2022/07/05 16:23:50;;;;;;;;;5.00;5.00;;;;;25.92;42.37;101925.72;5028140;28;45671;-75
2022/07/05 16:26:17;;;;;;;;;6.33;6.33;;;;;25.93;42.66;101919.28;5027380;28;45432;-73
2022/07/05 16:28:42;;;;;;;;;4.67;4.67;;;;;25.98;42.07;101924.22;5029787;28;47073;-76
2022/07/05 16:31:09;;;;;;;;;4.00;4.00;;;;;25.99;42.87;101917.81;5033356;28;45925;-74
2022/07/05 16:33:38;;;;;;;;;4.00;4.00;;;;;25.95;42.82;101914.50;5028694;28;46340;-74
2022/07/05 16:36:09;;;;;;;;;2.00;2.00;;;;;25.90;42.74;101919.56;5029989;28;45417;-75
2022/07/05 16:38:35;;;;;;;;;6.00;6.00;;;;;25.85;43.46;101914.63;5030288;28;45313;-75
2022/07/05 16:41:02;;;;;;;;;4.00;4.00;;;;;25.85;43.43;101914.63;5031354;28;45687;-74
2022/07/05 16:43:27;;;;;;;;;4.00;4.00;;;;;25.87;43.80;101918.03;5031931;28;45480;-75
2022/07/05 16:45:52;;;;;;;;;3.00;3.00;;;;;25.78;43.64;101905.34;5029664;28;45618;-74
2022/07/05 16:48:20;;;;;;;;;4.00;4.00;;;;;25.81;43.31;101915.06;5028822;28;50823;-78
2022/07/05 16:50:46;;;;;;;;;3.00;3.00;;;;;25.78;43.71;101913.50;5031683;28;45569;-78
2022/07/05 16:53:11;;;;;;;;;4.33;3.33;;;;;25.73;44.09;101904.97;5027509;28;45511;-76
2022/07/05 16:55:36;;;;;;;;;4.00;4.00;;;;;25.74;44.40;101912.13;5026207;28;54517;-75
2022/07/05 16:58:02;;;;;;;;;3.33;3.33;;;;;25.74;44.23;101917.56;5027986;28;46788;-74
2022/07/05 17:00:29;;;;;;;;;3.00;3.00;;;;;25.73;44.25;101907.69;5032393;28;45993;-75
2022/07/05 17:02:54;;;;;;;;;3.00;3.00;;;;;25.75;44.51;101913.84;5030304;28;45470;-75
2022/07/05 17:05:19;;;;;;;;;3.00;3.00;;;;;25.76;44.94;101915.56;5028350;28;46028;-76
2022/07/05 17:07:46;;;;;;;;;6.00;4.00;;;;;25.74;44.94;101914.84;5033596;28;45435;-77
2022/07/05 17:10:12;;;;;;;;;5.00;3.33;;;;;25.74;44.74;101923.00;5025578;28;45487;-75
2022/07/05 17:12:37;;;;;;;;;3.00;3.00;;;;;25.74;45.12;101920.28;5028433;28;48439;-75
2022/07/05 17:15:03;;;;;;;;;3.67;3.67;;;;;25.75;45.14;101922.84;5017959;28;46069;-75